createdAt,value
2019-02-20T00:02:55.739Z,102172.42
2019-02-20T00:07:57.880Z,102182.45
2019-02-20T00:13:01.503Z,102177.16
2019-02-20T00:18:04.622Z,102190.20
2019-02-20T00:23:08.154Z,102188.98
2019-02-20T00:28:10.231Z,102189.37
2019-02-20T00:33:13.729Z,102187.10
2019-02-20T00:38:15.744Z,102183.12
2019-02-20T00:43:18.822Z,102177.52
2019-02-20T00:48:41.180Z,102177.33
2019-02-20T00:53:48.374Z,102179.31
2019-02-20T00:58:50.371Z,102188.04
2019-02-20T01:03:52.570Z,102191.42
2019-02-20T01:08:54.739Z,102186.86
2019-02-20T01:13:56.730Z,102187.92
2019-02-20T01:19:02.720Z,102194.16
2019-02-20T01:24:04.714Z,102185.17
2019-02-20T01:29:06.764Z,102184.39
2019-02-20T01:34:08.765Z,102183.25
2019-02-20T01:39:11.969Z,102179.37
2019-02-20T01:44:14.003Z,102186.28
2019-02-20T01:49:16.424Z,102181.02
2019-02-20T01:54:18.447Z,102171.83
2019-02-20T01:59:20.439Z,102171.48
2019-02-20T02:04:22.655Z,102171.16
2019-02-20T02:09:24.885Z,102171.26
2019-02-20T02:14:28.937Z,102166.84
2019-02-20T02:19:31.201Z,102160.69
2019-02-20T02:24:33.204Z,102165.00
2019-02-20T02:29:35.449Z,102164.20
2019-02-20T02:34:37.456Z,102161.15
2019-02-20T02:39:40.324Z,102156.66
2019-02-20T02:44:42.634Z,102152.91
2019-02-20T02:49:44.646Z,102154.58
2019-02-20T02:54:49.745Z,102149.51
2019-02-20T02:59:51.926Z,102155.16
2019-02-20T03:04:55.375Z,102154.59
2019-02-20T03:09:57.411Z,102149.11
2019-02-20T03:14:59.423Z,102150.39
2019-02-20T03:20:01.728Z,102156.88
2019-02-20T03:25:03.821Z,102151.02
2019-02-20T03:30:06.169Z,102149.33
2019-02-20T03:35:09.302Z,102156.88
2019-02-20T03:40:13.637Z,102157.27
2019-02-20T03:45:20.601Z,102165.43
2019-02-20T03:50:22.857Z,102165.61
2019-02-20T03:55:24.876Z,102167.50
2019-02-20T04:00:27.076Z,102168.97
2019-02-20T04:05:31.870Z,102169.47
2019-02-20T04:10:33.870Z,102171.62
2019-02-20T04:15:35.974Z,102174.48
2019-02-20T04:20:38.058Z,102178.41
2019-02-20T04:25:40.119Z,102175.21
2019-02-20T04:30:42.371Z,102183.08
2019-02-20T04:35:44.383Z,102191.31
2019-02-20T04:40:46.605Z,102190.28
2019-02-20T04:45:48.634Z,102190.83
2019-02-20T04:50:54.530Z,102188.10
2019-02-20T04:55:56.552Z,102185.95
2019-02-20T05:00:58.815Z,102192.34
2019-02-20T05:06:00.827Z,102198.27
2019-02-20T05:11:02.841Z,102191.76
2019-02-20T05:16:04.861Z,102177.68
2019-02-20T05:21:07.161Z,102180.03
2019-02-20T05:26:09.216Z,102189.28
2019-02-20T05:31:11.348Z,102182.33
2019-02-20T05:36:13.373Z,102190.14
2019-02-20T05:41:15.420Z,102186.30
2019-02-20T05:46:17.414Z,102180.09
2019-02-20T05:51:20.693Z,102184.84
2019-02-20T05:56:22.706Z,102194.29
2019-02-20T06:01:24.804Z,102184.10
2019-02-20T06:06:26.835Z,102188.01
2019-02-20T06:11:28.832Z,102188.60
2019-02-20T06:16:31.403Z,102195.13
2019-02-20T06:21:34.764Z,102201.20
2019-02-20T06:26:36.735Z,102206.22
2019-02-20T06:31:38.807Z,102201.38
2019-02-20T06:36:40.806Z,102203.14
2019-02-20T06:41:42.813Z,102206.04
2019-02-20T06:46:44.831Z,102199.92
2019-02-20T06:51:49.141Z,102204.30
2019-02-20T06:56:51.170Z,102201.94
2019-02-20T07:01:54.533Z,102215.89
2019-02-20T07:07:21.205Z,102227.70
2019-02-20T07:12:52.423Z,102239.80
2019-02-20T07:18:23.249Z,102241.42
2019-02-20T07:23:54.416Z,102242.09
2019-02-20T07:29:46.443Z,102250.98
2019-02-20T07:34:48.529Z,102257.17
2019-02-20T07:39:50.546Z,102260.32
2019-02-20T07:44:55.377Z,102263.94
2019-02-20T07:49:57.424Z,102274.20
2019-02-20T07:54:59.421Z,102277.42
2019-02-20T08:00:01.470Z,102284.05
2019-02-20T08:05:03.832Z,102296.02
2019-02-20T08:10:08.174Z,102290.05
2019-02-20T08:15:10.957Z,102298.11
2019-02-20T08:20:13.057Z,102304.19
2019-02-20T08:25:22.903Z,102302.39
2019-02-20T08:30:21.550Z,102312.23
2019-02-20T08:35:23.547Z,102314.05
2019-02-20T08:40:26.603Z,102314.47
2019-02-20T08:45:28.624Z,102323.08
2019-02-20T08:50:30.786Z,102321.20
2019-02-20T08:55:32.785Z,102325.80
2019-02-20T09:00:35.033Z,102330.89
2019-02-20T09:05:37.101Z,102329.12
2019-02-20T09:10:39.174Z,102324.48
2019-02-20T09:15:43.709Z,102344.33
2019-02-20T09:20:47.056Z,102337.02
2019-02-20T09:25:49.064Z,102338.05
2019-02-20T09:30:51.273Z,102328.52
2019-02-20T09:35:54.301Z,102326.64
2019-02-20T09:40:56.403Z,102322.90
2019-02-20T09:46:01.789Z,102328.23
2019-02-20T09:51:07.102Z,102326.65
2019-02-20T09:56:09.154Z,102337.27
2019-02-20T10:01:12.661Z,102330.74
2019-02-20T10:06:15.760Z,102334.80
2019-02-20T10:11:18.962Z,102331.63
2019-02-20T10:16:21.048Z,102332.51
2019-02-20T10:21:25.845Z,102332.98
2019-02-20T10:26:28.075Z,102333.97
2019-02-20T10:31:30.346Z,102333.70
2019-02-20T10:36:32.406Z,102341.53
2019-02-20T10:41:38.478Z,102349.13
2019-02-20T10:46:40.506Z,102351.05
2019-02-20T10:51:42.729Z,102347.09
2019-02-20T10:56:44.760Z,102344.63
2019-02-20T11:01:46.847Z,102347.30
2019-02-20T11:06:49.954Z,102348.77
2019-02-20T11:11:52.269Z,102339.08
2019-02-20T11:16:54.290Z,102348.69
2019-02-20T11:21:57.846Z,102350.48
2019-02-20T11:26:59.912Z,102350.62
2019-02-20T11:32:02.271Z,102345.63
2019-02-20T11:37:04.282Z,102349.54
2019-02-20T11:42:06.564Z,102346.57
2019-02-20T11:47:13.412Z,102344.69
2019-02-20T11:52:15.421Z,102342.84
2019-02-20T11:57:17.447Z,102346.87
2019-02-20T12:02:21.960Z,102355.86
2019-02-20T12:07:24.104Z,102356.69
2019-02-20T12:12:26.106Z,102347.45
2019-02-20T12:17:28.139Z,102348.41
2019-02-20T12:22:30.555Z,102348.41
2019-02-20T12:27:34.043Z,102341.09
2019-02-20T12:32:36.066Z,102334.91
2019-02-20T12:37:40.650Z,102342.50
2019-02-20T12:42:42.686Z,102326.42
2019-02-20T12:47:47.044Z,102342.08
2019-02-20T12:52:49.150Z,102342.08
2019-02-20T12:57:51.175Z,102344.30
2019-02-20T13:02:53.466Z,102350.78
2019-02-20T13:07:55.983Z,102347.10
2019-02-20T13:12:58.340Z,102347.10
2019-02-20T13:18:00.461Z,102344.04
2019-02-20T13:23:02.881Z,102347.20
2019-02-20T13:28:04.919Z,102345.29
2019-02-20T13:33:07.366Z,102346.75
2019-02-20T13:38:09.375Z,102341.77
2019-02-20T13:43:11.639Z,102343.22
2019-02-20T13:48:13.711Z,102340.02
2019-02-20T13:53:15.924Z,102355.20
2019-02-20T13:58:17.947Z,102350.46
2019-02-20T14:03:23.460Z,102349.91
2019-02-20T14:08:25.511Z,102359.06
2019-02-20T14:13:27.608Z,102355.83
2019-02-20T14:18:29.653Z,102355.83
2019-02-20T14:23:35.926Z,102359.85
2019-02-20T14:28:38.629Z,102362.41
2019-02-20T14:33:40.788Z,102360.22
2019-02-20T14:38:42.863Z,102368.59
2019-02-20T14:43:45.022Z,102368.59
2019-02-20T14:48:47.401Z,102371.63
2019-02-20T14:53:49.782Z,102367.39
2019-02-20T14:58:54.089Z,102365.06
2019-02-20T15:03:56.558Z,102362.22
2019-02-20T15:09:01.110Z,102370.45
2019-02-20T15:14:03.358Z,102372.71
2019-02-20T15:19:05.486Z,102380.86
2019-02-20T15:24:07.515Z,102386.49
2019-02-20T15:29:09.527Z,102387.09
2019-02-20T15:34:11.888Z,102388.70
2019-02-20T15:39:13.951Z,102390.21
2019-02-20T15:44:16.035Z,102387.40
2019-02-20T15:49:21.061Z,102382.45
2019-02-20T15:54:23.108Z,102387.70
2019-02-20T15:59:25.114Z,102385.05
2019-02-20T16:04:27.126Z,102390.20
2019-02-20T16:09:29.455Z,102390.20
2019-02-20T16:14:31.470Z,102387.40
2019-02-20T16:19:36.026Z,102395.48
2019-02-20T16:24:38.039Z,102393.95
2019-02-20T16:29:42.291Z,102386.67
2019-02-20T16:34:47.104Z,102399.09
2019-02-20T16:39:49.148Z,102393.84
2019-02-20T16:44:51.197Z,102402.20
2019-02-20T16:49:53.353Z,102392.45
2019-02-20T16:54:57.057Z,102391.36
2019-02-20T16:59:59.104Z,102396.91
2019-02-20T17:05:01.115Z,102392.42
2019-02-20T17:10:03.972Z,102399.47
2019-02-20T17:15:07.633Z,102394.98
2019-02-20T17:20:11.887Z,102391.02
2019-02-20T17:25:16.969Z,102386.31
2019-02-20T17:30:24.109Z,102396.07
2019-02-20T17:35:26.176Z,102403.11
2019-02-20T17:40:28.357Z,102410.38
2019-02-20T17:45:30.412Z,102418.80
2019-02-20T17:50:35.441Z,102418.80
2019-02-20T17:55:37.571Z,102420.20
2019-02-20T18:00:41.321Z,102416.04
2019-02-20T18:05:45.875Z,102433.25
2019-02-20T18:10:47.941Z,102433.25
2019-02-20T18:15:51.762Z,102441.52
2019-02-20T18:20:59.285Z,102436.13
2019-02-20T18:26:01.328Z,102432.98
2019-02-20T18:31:03.556Z,102427.39
2019-02-20T18:36:05.707Z,102444.82
2019-02-20T18:41:08.140Z,102433.78
2019-02-20T18:46:10.181Z,102436.08
2019-02-20T18:51:12.382Z,102443.11
2019-02-20T18:56:22.284Z,102448.25
2019-02-20T19:01:24.646Z,102454.83
2019-02-20T19:06:26.777Z,102465.39
2019-02-20T19:11:43.638Z,102462.19
2019-02-20T19:17:33.578Z,102469.84
2019-02-20T19:23:18.439Z,102479.06
2019-02-20T19:28:44.556Z,102476.95
2019-02-20T19:34:13.749Z,102476.95
2019-02-20T19:39:27.094Z,102476.09
2019-02-20T19:44:59.760Z,102486.06
2019-02-20T19:50:34.971Z,102490.03
2019-02-20T19:56:07.626Z,102487.93
2019-02-20T20:01:39.895Z,102494.24
2019-02-20T20:07:19.602Z,102487.55
2019-02-20T20:13:20.614Z,102483.03
2019-02-20T20:18:56.020Z,102482.83
2019-02-20T20:24:52.867Z,102484.63
2019-02-20T20:30:32.695Z,102473.72
2019-02-20T20:35:47.777Z,102470.30
2019-02-20T20:41:45.008Z,102464.14
2019-02-20T20:47:43.832Z,102461.66
2019-02-20T20:53:00.901Z,102476.17
2019-02-20T20:58:27.231Z,102465.35
2019-02-20T21:03:33.016Z,102457.75
2019-02-20T21:09:11.926Z,102470.89
2019-02-20T21:14:49.229Z,102476.63
2019-02-20T21:20:13.767Z,102479.91
2019-02-20T21:26:03.856Z,102477.89
2019-02-20T21:31:43.771Z,102484.77
2019-02-20T21:37:23.519Z,102483.36
2019-02-20T21:42:50.271Z,102480.19
2019-02-20T21:48:13.623Z,102484.53
2019-02-20T21:54:08.235Z,102489.55
2019-02-20T22:00:00.403Z,102476.78
2019-02-20T22:05:29.383Z,102470.08
2019-02-20T22:10:58.714Z,102472.19
2019-02-20T22:16:10.638Z,102481.66
2019-02-20T22:22:04.859Z,102495.92
2019-02-20T22:27:48.806Z,102498.06
2019-02-20T22:33:11.866Z,102500.75
2019-02-20T22:38:43.679Z,102504.51
2019-02-20T22:44:27.500Z,102504.85
2019-02-20T22:50:11.335Z,102499.77
2019-02-20T22:55:52.620Z,102503.50
2019-02-20T23:01:40.922Z,102515.95
2019-02-20T23:07:04.752Z,102523.12
2019-02-20T23:12:35.268Z,102523.19
2019-02-20T23:17:40.255Z,102524.97
2019-02-20T23:22:42.272Z,102531.87
2019-02-20T23:27:44.443Z,102540.09
2019-02-20T23:32:46.498Z,102534.95
2019-02-20T23:37:49.767Z,102534.82
2019-02-20T23:42:52.022Z,102527.05
2019-02-20T23:47:56.968Z,102530.61
2019-02-20T23:52:59.088Z,102531.02
2019-02-20T23:58:01.211Z,102531.47
